LSI272X LIPX-EDDP
Flight info
| Callsign | LSI272X |
|---|---|
| Flight time | 1h 2m |
| Altitude | 40000 |
| Route | TUVDE DCT VIC L12 NAXAV M726 LASGA T953 VOCIM T954 GOXLI GOXLI1V |
| Aircraft | B77L/H-SDE1E2E3FGHIJ2J3J4J5M1RWXY/LB1D1 |
Departure
| Time | 2026-04-24 14:19 |
|---|---|
| Airport | Verona Villafranca Valerio Catullo Airport (LIPX) |
Arrival
| Time | 2026-04-24 15:22 |
|---|---|
| Airport | Leipzig/Halle Airport (EDDP) |
| Time | Latitude | Longitude | Altitude | Speed | Heading |
|---|---|---|---|---|---|
| 2026-04-24 14:09 | 45.40548 | 10.90831 | 247 ft | 0 kts | 45° |
| 2026-04-24 14:17 | 45.40555 | 10.90834 | 247 ft | 1 kts | 13° |
| 2026-04-24 14:17 | 45.40563 | 10.90827 | 247 ft | 2 kts | 325° |
| 2026-04-24 14:17 | 45.40580 | 10.90728 | 247 ft | 9 kts | 287° |
| 2026-04-24 14:18 | 45.40613 | 10.90645 | 247 ft | 10 kts | 305° |
| 2026-04-24 14:18 | 45.40626 | 10.90549 | 250 ft | 10 kts | 262° |
| 2026-04-24 14:18 | 45.40629 | 10.90450 | 253 ft | 10 kts | 287° |
| 2026-04-24 14:18 | 45.40602 | 10.90355 | 252 ft | 11 kts | 227° |
| 2026-04-24 14:19 | 45.40547 | 10.90274 | 251 ft | 35 kts | 226° |
| 2026-04-24 14:19 | 45.39912 | 10.89349 | 248 ft | 153 kts | 227° |
| 2026-04-24 14:19 | 45.39074 | 10.88107 | 616 ft | 186 kts | 229° |
| 2026-04-24 14:19 | 45.38213 | 10.86768 | 1654 ft | 184 kts | 230° |
| 2026-04-24 14:20 | 45.37471 | 10.85292 | 2702 ft | 184 kts | 242° |
| 2026-04-24 14:20 | 45.36706 | 10.83753 | 3248 ft | 208 kts | 218° |
| 2026-04-24 14:20 | 45.35215 | 10.83148 | 3597 ft | 246 kts | 176° |
| 2026-04-24 14:20 | 45.33626 | 10.84170 | 4491 ft | 261 kts | 139° |
| 2026-04-24 14:21 | 45.32567 | 10.86341 | 5404 ft | 275 kts | 112° |
| 2026-04-24 14:21 | 45.32109 | 10.88980 | 6470 ft | 277 kts | 96° |
| 2026-04-24 14:21 | 45.31946 | 10.91724 | 7602 ft | 280 kts | 92° |
| 2026-04-24 14:21 | 45.31835 | 10.94494 | 8774 ft | 280 kts | 90° |
| 2026-04-24 14:22 | 45.32106 | 10.97205 | 9713 ft | 281 kts | 63° |
| 2026-04-24 14:22 | 45.33354 | 10.99309 | 10627 ft | 286 kts | 33° |
| 2026-04-24 14:22 | 45.37531 | 11.01014 | 11310 ft | 347 kts | 11° |
| 2026-04-24 14:23 | 45.39924 | 11.01673 | 12150 ft | 361 kts | 11° |
| 2026-04-24 14:23 | 45.42416 | 11.02352 | 13361 ft | 367 kts | 12° |
| 2026-04-24 14:23 | 45.44943 | 11.03043 | 14562 ft | 373 kts | 11° |
| 2026-04-24 14:23 | 45.47507 | 11.03747 | 15663 ft | 379 kts | 12° |
| 2026-04-24 14:24 | 45.50121 | 11.04472 | 16708 ft | 386 kts | 12° |
| 2026-04-24 14:24 | 45.52779 | 11.05214 | 17747 ft | 393 kts | 12° |
| 2026-04-24 14:24 | 45.55488 | 11.05977 | 18731 ft | 400 kts | 12° |
| 2026-04-24 14:24 | 45.58234 | 11.06753 | 19680 ft | 405 kts | 12° |
| 2026-04-24 14:25 | 45.60103 | 11.07283 | 20339 ft | 407 kts | 12° |
| 2026-04-24 14:25 | 45.63816 | 11.08341 | 21597 ft | 413 kts | 12° |
| 2026-04-24 14:25 | 45.66651 | 11.09148 | 22521 ft | 419 kts | 12° |
| 2026-04-24 14:25 | 45.69528 | 11.09967 | 23421 ft | 424 kts | 12° |
| 2026-04-24 14:26 | 45.72445 | 11.10798 | 24206 ft | 429 kts | 12° |
| 2026-04-24 14:26 | 45.75385 | 11.11637 | 25011 ft | 433 kts | 12° |
| 2026-04-24 14:26 | 45.78356 | 11.12488 | 25792 ft | 437 kts | 12° |
| 2026-04-24 14:26 | 45.81352 | 11.13345 | 26509 ft | 442 kts | 13° |
| 2026-04-24 14:27 | 45.84381 | 11.14215 | 27240 ft | 446 kts | 13° |
| 2026-04-24 14:27 | 45.87442 | 11.15094 | 27966 ft | 451 kts | 13° |
| 2026-04-24 14:27 | 45.90534 | 11.15978 | 28663 ft | 455 kts | 13° |
| 2026-04-24 14:27 | 45.93660 | 11.16875 | 29333 ft | 459 kts | 13° |
| 2026-04-24 14:28 | 45.96813 | 11.17767 | 29899 ft | 464 kts | 13° |
| 2026-04-24 14:28 | 45.99949 | 11.18677 | 30447 ft | 468 kts | 13° |
| 2026-04-24 14:28 | 46.03155 | 11.19613 | 30979 ft | 471 kts | 13° |
| 2026-04-24 14:28 | 46.06382 | 11.20552 | 31593 ft | 471 kts | 13° |
| 2026-04-24 14:29 | 46.09585 | 11.21478 | 32346 ft | 467 kts | 13° |
| 2026-04-24 14:29 | 46.12755 | 11.22394 | 33116 ft | 464 kts | 13° |
| 2026-04-24 14:29 | 46.15921 | 11.23309 | 33793 ft | 463 kts | 13° |
| 2026-04-24 14:29 | 46.19072 | 11.24222 | 34393 ft | 462 kts | 13° |
| 2026-04-24 14:30 | 46.21159 | 11.24828 | 34770 ft | 461 kts | 13° |
| 2026-04-24 14:30 | 46.24302 | 11.25741 | 35198 ft | 459 kts | 13° |
| 2026-04-24 14:30 | 46.28439 | 11.26946 | 35922 ft | 457 kts | 13° |
| 2026-04-24 14:30 | 46.31558 | 11.27856 | 36485 ft | 455 kts | 13° |
| 2026-04-24 14:31 | 46.33653 | 11.28468 | 36847 ft | 454 kts | 13° |
| 2026-04-24 14:31 | 46.36752 | 11.29373 | 37353 ft | 453 kts | 13° |
| 2026-04-24 14:31 | 46.39845 | 11.30279 | 37826 ft | 453 kts | 12° |
| 2026-04-24 14:31 | 46.42906 | 11.31176 | 38109 ft | 455 kts | 12° |
| 2026-04-24 14:32 | 46.46024 | 11.32054 | 38547 ft | 455 kts | 10° |
| 2026-04-24 14:32 | 46.49166 | 11.32594 | 38949 ft | 454 kts | 5° |
| 2026-04-24 14:32 | 46.52325 | 11.32920 | 39261 ft | 455 kts | 5° |
| 2026-04-24 14:32 | 46.55490 | 11.33215 | 39557 ft | 456 kts | 4° |
| 2026-04-24 14:33 | 46.58662 | 11.33512 | 39876 ft | 457 kts | 5° |
| 2026-04-24 14:33 | 46.65061 | 11.34155 | 40008 ft | 462 kts | 5° |
| 2026-04-24 14:34 | 46.71445 | 11.34830 | 40011 ft | 456 kts | 5° |
| 2026-04-24 14:34 | 46.77745 | 11.35499 | 40040 ft | 453 kts | 5° |
| 2026-04-24 14:35 | 46.84026 | 11.36174 | 40052 ft | 453 kts | 5° |
| 2026-04-24 14:35 | 46.90285 | 11.36858 | 40066 ft | 454 kts | 5° |
| 2026-04-24 14:36 | 46.96582 | 11.37545 | 40080 ft | 455 kts | 4° |
| 2026-04-24 14:36 | 47.02907 | 11.38203 | 40083 ft | 455 kts | 4° |
| 2026-04-24 14:37 | 47.09231 | 11.38823 | 40088 ft | 455 kts | 4° |
| 2026-04-24 14:37 | 47.15556 | 11.39453 | 40082 ft | 455 kts | 4° |
| 2026-04-24 14:38 | 47.21880 | 11.40087 | 40077 ft | 456 kts | 4° |
| 2026-04-24 14:38 | 47.28224 | 11.40275 | 40067 ft | 456 kts | 360° |
| 2026-04-24 14:39 | 47.34564 | 11.40201 | 40074 ft | 456 kts | 360° |
| 2026-04-24 14:39 | 47.40911 | 11.40187 | 40080 ft | 456 kts | 360° |
| 2026-04-24 14:40 | 47.47266 | 11.40134 | 40097 ft | 456 kts | 359° |
| 2026-04-24 14:40 | 47.53624 | 11.40074 | 40099 ft | 457 kts | 359° |
| 2026-04-24 14:41 | 47.59980 | 11.40019 | 40110 ft | 457 kts | 359° |
| 2026-04-24 14:41 | 47.66291 | 11.39537 | 40125 ft | 458 kts | 354° |
| 2026-04-24 14:42 | 47.72675 | 11.38602 | 40137 ft | 465 kts | 354° |
| 2026-04-24 14:42 | 47.79159 | 11.37680 | 40118 ft | 470 kts | 354° |
| 2026-04-24 14:43 | 47.85691 | 11.36787 | 40142 ft | 471 kts | 354° |
| 2026-04-24 14:43 | 47.92237 | 11.36159 | 40149 ft | 471 kts | 356° |
| 2026-04-24 14:44 | 47.98783 | 11.35679 | 40155 ft | 470 kts | 356° |
| 2026-04-24 14:44 | 48.05307 | 11.35133 | 40154 ft | 468 kts | 356° |
| 2026-04-24 14:45 | 48.11769 | 11.34126 | 40151 ft | 466 kts | 352° |
| 2026-04-24 14:45 | 48.18139 | 11.32810 | 40154 ft | 464 kts | 352° |
| 2026-04-24 14:46 | 48.24538 | 11.31539 | 40149 ft | 463 kts | 352° |
| 2026-04-24 14:46 | 48.30937 | 11.30403 | 40145 ft | 463 kts | 353° |
| 2026-04-24 14:47 | 48.37350 | 11.29438 | 40134 ft | 463 kts | 354° |
| 2026-04-24 14:47 | 48.43765 | 11.28461 | 40130 ft | 463 kts | 353° |
| 2026-04-24 14:48 | 48.50146 | 11.27459 | 40127 ft | 464 kts | 353° |
| 2026-04-24 14:48 | 48.56580 | 11.26440 | 40133 ft | 465 kts | 353° |
| 2026-04-24 14:49 | 48.63038 | 11.25416 | 40130 ft | 466 kts | 353° |
| 2026-04-24 14:49 | 48.69511 | 11.24371 | 40131 ft | 467 kts | 353° |
| 2026-04-24 14:50 | 48.75983 | 11.23303 | 40134 ft | 468 kts | 352° |
| 2026-04-24 14:50 | 48.82400 | 11.22246 | 40133 ft | 468 kts | 352° |
| 2026-04-24 14:51 | 48.88936 | 11.21799 | 40158 ft | 469 kts | 359° |
| 2026-04-24 14:51 | 48.95472 | 11.21904 | 40131 ft | 469 kts | 359° |
| 2026-04-24 14:52 | 49.02005 | 11.21994 | 40129 ft | 469 kts | 359° |
| 2026-04-24 14:52 | 49.08489 | 11.22035 | 40133 ft | 469 kts | 358° |
| 2026-04-24 14:53 | 49.15015 | 11.22065 | 40133 ft | 469 kts | 358° |
| 2026-04-24 14:53 | 49.21552 | 11.22101 | 40144 ft | 469 kts | 358° |
| 2026-04-24 14:54 | 49.28068 | 11.22154 | 40134 ft | 468 kts | 358° |
| 2026-04-24 14:54 | 49.34592 | 11.22217 | 40131 ft | 468 kts | 358° |
| 2026-04-24 14:55 | 49.39997 | 11.22267 | 40132 ft | 467 kts | 358° |
| 2026-04-24 14:55 | 49.47619 | 11.22334 | 40127 ft | 468 kts | 358° |
| 2026-04-24 14:56 | 49.54099 | 11.22391 | 40133 ft | 468 kts | 358° |
| 2026-04-24 14:56 | 49.60619 | 11.22433 | 40133 ft | 469 kts | 358° |
| 2026-04-24 14:57 | 49.67151 | 11.22456 | 40143 ft | 469 kts | 357° |
| 2026-04-24 14:57 | 49.73684 | 11.22484 | 40139 ft | 470 kts | 357° |
| 2026-04-24 14:58 | 49.80221 | 11.22514 | 40136 ft | 470 kts | 357° |
| 2026-04-24 14:58 | 49.86763 | 11.22535 | 40137 ft | 470 kts | 357° |
| 2026-04-24 14:59 | 49.93297 | 11.22555 | 40142 ft | 469 kts | 357° |
| 2026-04-24 14:59 | 49.99799 | 11.22575 | 40134 ft | 469 kts | 357° |
| 2026-04-24 15:00 | 50.06318 | 11.22597 | 40135 ft | 469 kts | 357° |
| 2026-04-24 15:00 | 50.12845 | 11.22633 | 40149 ft | 468 kts | 357° |
| 2026-04-24 15:01 | 50.19365 | 11.22681 | 40147 ft | 468 kts | 357° |
| 2026-04-24 15:01 | 50.25843 | 11.22730 | 40139 ft | 468 kts | 357° |
| 2026-04-24 15:02 | 50.32356 | 11.22775 | 40139 ft | 468 kts | 357° |
| 2026-04-24 15:02 | 50.38867 | 11.22741 | 40151 ft | 467 kts | 354° |
| 2026-04-24 15:02 | 50.42119 | 11.22505 | 39875 ft | 471 kts | 353° |
| 2026-04-24 15:03 | 50.44312 | 11.22304 | 39360 ft | 477 kts | 353° |
| 2026-04-24 15:03 | 50.48718 | 11.21902 | 38484 ft | 470 kts | 353° |
| 2026-04-24 15:03 | 50.52003 | 11.21632 | 37303 ft | 474 kts | 353° |
| 2026-04-24 15:03 | 50.55259 | 11.21389 | 36370 ft | 474 kts | 354° |
| 2026-04-24 15:04 | 50.58557 | 11.21172 | 35362 ft | 476 kts | 355° |
| 2026-04-24 15:04 | 50.61891 | 11.21476 | 34265 ft | 484 kts | 5° |
| 2026-04-24 15:04 | 50.65216 | 11.22523 | 33018 ft | 490 kts | 11° |
| 2026-04-24 15:04 | 50.68459 | 11.24242 | 32035 ft | 492 kts | 20° |
| 2026-04-24 15:05 | 50.71555 | 11.26484 | 31262 ft | 486 kts | 22° |
| 2026-04-24 15:05 | 50.74592 | 11.28768 | 30495 ft | 481 kts | 22° |
| 2026-04-24 15:05 | 50.77596 | 11.31034 | 29665 ft | 475 kts | 22° |
| 2026-04-24 15:05 | 50.80568 | 11.33255 | 28877 ft | 470 kts | 22° |
| 2026-04-24 15:06 | 50.83483 | 11.35411 | 28152 ft | 463 kts | 22° |
| 2026-04-24 15:06 | 50.86385 | 11.37543 | 27423 ft | 457 kts | 21° |
| 2026-04-24 15:06 | 50.89259 | 11.39647 | 26727 ft | 452 kts | 21° |
| 2026-04-24 15:06 | 50.92097 | 11.41724 | 26031 ft | 447 kts | 21° |
| 2026-04-24 15:07 | 50.94909 | 11.43786 | 25346 ft | 442 kts | 21° |
| 2026-04-24 15:07 | 50.97690 | 11.45829 | 24678 ft | 438 kts | 21° |
| 2026-04-24 15:07 | 51.00439 | 11.47852 | 24002 ft | 434 kts | 21° |
| 2026-04-24 15:07 | 51.03169 | 11.49864 | 23274 ft | 431 kts | 21° |
| 2026-04-24 15:08 | 51.05879 | 11.51864 | 22550 ft | 427 kts | 21° |
| 2026-04-24 15:08 | 51.08551 | 11.53848 | 21873 ft | 418 kts | 23° |
| 2026-04-24 15:08 | 51.10942 | 11.56424 | 21232 ft | 418 kts | 40° |
| 2026-04-24 15:08 | 51.12740 | 11.60058 | 20629 ft | 419 kts | 58° |
| 2026-04-24 15:09 | 51.14055 | 11.64164 | 20047 ft | 414 kts | 60° |
| 2026-04-24 15:09 | 51.15323 | 11.68207 | 19454 ft | 412 kts | 60° |
| 2026-04-24 15:09 | 51.16619 | 11.72277 | 18854 ft | 411 kts | 60° |
| 2026-04-24 15:09 | 51.17923 | 11.76324 | 18204 ft | 410 kts | 60° |
| 2026-04-24 15:10 | 51.19234 | 11.80364 | 17537 ft | 408 kts | 60° |
| 2026-04-24 15:10 | 51.20541 | 11.84378 | 16914 ft | 406 kts | 60° |
| 2026-04-24 15:10 | 51.21835 | 11.88360 | 16298 ft | 403 kts | 59° |
| 2026-04-24 15:10 | 51.23016 | 11.92360 | 15681 ft | 398 kts | 68° |
| 2026-04-24 15:11 | 51.23464 | 11.96690 | 15121 ft | 394 kts | 86° |
| 2026-04-24 15:11 | 51.23468 | 12.00956 | 14975 ft | 375 kts | 85° |
| 2026-04-24 15:11 | 51.23623 | 12.05079 | 14459 ft | 371 kts | 82° |
| 2026-04-24 15:11 | 51.23854 | 12.09130 | 13835 ft | 371 kts | 81° |
| 2026-04-24 15:12 | 51.24090 | 12.13236 | 13129 ft | 372 kts | 82° |
| 2026-04-24 15:12 | 51.24505 | 12.21434 | 11942 ft | 367 kts | 82° |
| 2026-04-24 15:12 | 51.24693 | 12.25475 | 11403 ft | 363 kts | 82° |
| 2026-04-24 15:13 | 51.24877 | 12.29477 | 10917 ft | 359 kts | 82° |
| 2026-04-24 15:13 | 51.25054 | 12.33362 | 10817 ft | 343 kts | 82° |
| 2026-04-24 15:13 | 51.25244 | 12.37051 | 10696 ft | 321 kts | 77° |
| 2026-04-24 15:13 | 51.25870 | 12.40328 | 10579 ft | 299 kts | 60° |
| 2026-04-24 15:14 | 51.26748 | 12.43261 | 10425 ft | 287 kts | 60° |
| 2026-04-24 15:14 | 51.27563 | 12.46125 | 10199 ft | 279 kts | 61° |
| 2026-04-24 15:14 | 51.28319 | 12.48877 | 9603 ft | 265 kts | 61° |
| 2026-04-24 15:14 | 51.29053 | 12.51573 | 8620 ft | 264 kts | 62° |
| 2026-04-24 15:15 | 51.29775 | 12.54239 | 7616 ft | 265 kts | 62° |
| 2026-04-24 15:15 | 51.30557 | 12.56891 | 6649 ft | 261 kts | 53° |
| 2026-04-24 15:15 | 51.31857 | 12.58785 | 5663 ft | 250 kts | 22° |
| 2026-04-24 15:15 | 51.33485 | 12.59422 | 5065 ft | 231 kts | 1° |
| 2026-04-24 15:16 | 51.35114 | 12.59358 | 4800 ft | 239 kts | 354° |
| 2026-04-24 15:16 | 51.36216 | 12.59225 | 4612 ft | 239 kts | 353° |
| 2026-04-24 15:16 | 51.37855 | 12.59019 | 4315 ft | 233 kts | 353° |
| 2026-04-24 15:16 | 51.39454 | 12.58826 | 4197 ft | 230 kts | 353° |
| 2026-04-24 15:17 | 51.41578 | 12.58575 | 4055 ft | 230 kts | 353° |
| 2026-04-24 15:17 | 51.43067 | 12.57865 | 3926 ft | 222 kts | 325° |
| 2026-04-24 15:17 | 51.44003 | 12.55995 | 3840 ft | 216 kts | 291° |
| 2026-04-24 15:17 | 51.44226 | 12.54400 | 3709 ft | 220 kts | 279° |
| 2026-04-24 15:18 | 51.44351 | 12.51931 | 3454 ft | 221 kts | 275° |
| 2026-04-24 15:18 | 51.44397 | 12.49493 | 3179 ft | 217 kts | 271° |
| 2026-04-24 15:18 | 51.44327 | 12.47132 | 3019 ft | 205 kts | 269° |
| 2026-04-24 15:18 | 51.44224 | 12.44941 | 2735 ft | 194 kts | 267° |
| 2026-04-24 15:19 | 51.44123 | 12.42859 | 2478 ft | 182 kts | 268° |
| 2026-04-24 15:19 | 51.44031 | 12.40874 | 2257 ft | 176 kts | 268° |
| 2026-04-24 15:19 | 51.43939 | 12.38963 | 2022 ft | 167 kts | 269° |
| 2026-04-24 15:19 | 51.43856 | 12.37188 | 1783 ft | 154 kts | 268° |
| 2026-04-24 15:20 | 51.43781 | 12.35584 | 1595 ft | 136 kts | 268° |
| 2026-04-24 15:20 | 51.43711 | 12.34131 | 1416 ft | 129 kts | 268° |
| 2026-04-24 15:20 | 51.43646 | 12.32657 | 1261 ft | 135 kts | 268° |
| 2026-04-24 15:20 | 51.43569 | 12.31143 | 1036 ft | 135 kts | 267° |
| 2026-04-24 15:21 | 51.43502 | 12.29696 | 848 ft | 130 kts | 268° |
| 2026-04-24 15:21 | 51.43435 | 12.28231 | 716 ft | 133 kts | 267° |
| 2026-04-24 15:21 | 51.43363 | 12.26729 | 503 ft | 135 kts | 268° |
| 2026-04-24 15:21 | 51.43299 | 12.25310 | 458 ft | 115 kts | 266° |
| 2026-04-24 15:22 | 51.43248 | 12.24234 | 450 ft | 79 kts | 266° |
| 2026-04-24 15:22 | 51.43151 | 12.23673 | 451 ft | 44 kts | 236° |
| 2026-04-24 15:22 | 51.43032 | 12.23456 | 448 ft | 24 kts | 204° |
| 2026-04-24 15:23 | 51.42906 | 12.23606 | 433 ft | 12 kts | 85° |
| 2026-04-24 15:23 | 51.42928 | 12.24023 | 446 ft | 39 kts | 85° |
| 2026-04-24 15:23 | 51.42946 | 12.24413 | 448 ft | 29 kts | 86° |
| 2026-04-24 15:24 | 51.42903 | 12.25077 | 454 ft | 12 kts | 194° |
| 2026-04-24 15:25 | 51.42742 | 12.25010 | 463 ft | 13 kts | 194° |
| 2026-04-24 15:25 | 51.42389 | 12.24879 | 477 ft | 30 kts | 193° |
| 2026-04-24 15:26 | 51.41775 | 12.24640 | 479 ft | 32 kts | 193° |
| 2026-04-24 15:27 | 51.41206 | 12.24422 | 475 ft | 26 kts | 192° |
| 2026-04-24 15:27 | 51.40943 | 12.24662 | 470 ft | 17 kts | 176° |
| 2026-04-24 15:28 | 51.40792 | 12.24547 | 468 ft | 3 kts | 265° |
| 2026-04-24 15:29 | 51.40791 | 12.24530 | 468 ft | 0 kts | 265° |